createdAt,value
2019-02-06T00:00:09.657Z,1.01
2019-02-06T00:01:09.591Z,0.99
2019-02-06T00:02:09.535Z,1.01
2019-02-06T00:03:09.474Z,0.95
2019-02-06T00:04:09.445Z,0.94
2019-02-06T00:05:14.136Z,1.01
2019-02-06T00:06:09.298Z,0.92
2019-02-06T00:07:09.235Z,0.98
2019-02-06T00:08:09.176Z,0.88
2019-02-06T00:09:09.151Z,0.84
2019-02-06T00:10:09.089Z,0.76
2019-02-06T00:11:09.002Z,0.81
2019-02-06T00:12:08.941Z,0.76
2019-02-06T00:13:08.916Z,0.86
2019-02-06T00:14:08.868Z,0.81
2019-02-06T00:15:08.761Z,0.83
2019-02-06T00:16:08.712Z,0.95
2019-02-06T00:17:08.685Z,0.94
2019-02-06T00:18:08.586Z,0.94
2019-02-06T00:19:08.558Z,0.92
2019-02-06T00:20:08.463Z,0.96
2019-02-06T00:21:08.405Z,0.94
2019-02-06T00:22:08.350Z,0.95
2019-02-06T00:23:08.319Z,0.98
2019-02-06T00:24:08.257Z,0.94
2019-02-06T00:25:08.172Z,0.94
2019-02-06T00:26:08.112Z,0.98
2019-02-06T00:27:08.053Z,0.91
2019-02-06T00:28:08.018Z,0.96
2019-02-06T00:29:07.929Z,0.96
2019-02-06T00:30:07.870Z,0.94
2019-02-06T00:31:07.810Z,0.98
2019-02-06T00:32:07.749Z,0.91
2019-02-06T00:33:07.725Z,1.01
2019-02-06T00:34:07.631Z,1.01
2019-02-06T00:35:07.576Z,0.99
2019-02-06T00:36:07.519Z,0.98
2019-02-06T00:37:07.460Z,0.96
2019-02-06T00:38:07.442Z,0.98
2019-02-06T00:39:07.365Z,0.98
2019-02-06T00:40:07.307Z,1.01
2019-02-06T00:41:07.215Z,0.92
2019-02-06T00:42:07.159Z,1.02
2019-02-06T00:43:07.100Z,0.98
2019-02-06T00:44:07.131Z,0.84
2019-02-06T00:45:07.023Z,0.96
2019-02-06T00:46:06.921Z,0.91
2019-02-06T00:47:06.862Z,0.91
2019-02-06T00:48:06.801Z,0.92
2019-02-06T00:49:06.739Z,0.86
2019-02-06T00:50:06.729Z,0.92
2019-02-06T00:51:06.622Z,0.86
2019-02-06T00:52:06.573Z,0.94
2019-02-06T00:53:06.508Z,0.87
2019-02-06T00:54:06.448Z,0.84
2019-02-06T00:55:06.417Z,0.86
2019-02-06T00:56:06.325Z,0.81
2019-02-06T00:57:06.265Z,0.83
2019-02-06T00:58:06.240Z,0.83
2019-02-06T00:59:06.147Z,0.88
2019-02-06T01:00:06.093Z,0.86
2019-02-06T01:01:06.060Z,0.95
2019-02-06T01:02:05.970Z,0.91
2019-02-06T01:03:05.912Z,0.96
2019-02-06T01:04:05.848Z,0.84
2019-02-06T01:05:05.789Z,0.91
2019-02-06T01:06:05.763Z,0.92
2019-02-06T01:07:05.671Z,0.77
2019-02-06T01:08:05.613Z,0.86
2019-02-06T01:09:05.552Z,0.78
2019-02-06T01:10:05.499Z,0.76
2019-02-06T01:11:05.466Z,0.69
2019-02-06T01:12:05.382Z,0.66
2019-02-06T01:13:05.314Z,0.69
2019-02-06T01:14:05.256Z,0.69
2019-02-06T01:15:05.231Z,0.50
2019-02-06T01:16:05.135Z,0.58
2019-02-06T01:17:05.078Z,0.59
2019-02-06T01:18:05.013Z,0.55
2019-02-06T01:19:04.999Z,0.46
2019-02-06T01:20:04.898Z,0.47
2019-02-06T01:21:04.838Z,0.49
2019-02-06T01:22:04.783Z,0.36
2019-02-06T01:23:04.719Z,0.36
2019-02-06T01:24:04.688Z,0.34
2019-02-06T01:25:04.598Z,0.39
2019-02-06T01:26:04.544Z,0.36
2019-02-06T01:27:04.515Z,0.23
2019-02-06T01:28:04.420Z,0.34
2019-02-06T01:29:04.361Z,0.29
2019-02-06T01:30:04.334Z,0.28
2019-02-06T01:31:04.243Z,0.22
2019-02-06T01:32:04.181Z,0.21
2019-02-06T01:33:04.126Z,0.18
2019-02-06T01:34:04.107Z,0.11
2019-02-06T01:35:04.002Z,0.22
2019-02-06T01:36:03.944Z,0.21
2019-02-06T01:37:03.882Z,0.26
2019-02-06T01:38:03.830Z,0.08
2019-02-06T01:39:03.793Z,0.07
2019-02-06T01:40:03.737Z,0.11
2019-02-06T01:41:03.646Z,-0.02
2019-02-06T01:42:03.623Z,-0.08
2019-02-06T01:43:03.527Z,-0.17
2019-02-06T01:44:03.467Z,-0.23
2019-02-06T01:45:03.409Z,-0.13
2019-02-06T01:46:03.476Z,-0.14
2019-02-06T01:47:03.327Z,-0.13
2019-02-06T01:48:03.229Z,-0.03
2019-02-06T01:49:03.171Z,0.07
2019-02-06T01:50:03.110Z,0.00
2019-02-06T01:51:03.047Z,0.01
2019-02-06T01:52:03.029Z,0.08
2019-02-06T01:53:02.928Z,0.01
2019-02-06T01:54:02.868Z,0.11
2019-02-06T01:55:02.810Z,-0.03
2019-02-06T01:56:02.745Z,0.00
2019-02-06T01:57:02.717Z,0.04
2019-02-06T01:58:02.630Z,0.05
2019-02-06T01:59:02.605Z,0.01
2019-02-06T02:00:02.507Z,0.04
2019-02-06T02:01:02.448Z,0.04
2019-02-06T02:02:02.391Z,-0.03
2019-02-06T02:03:02.364Z,-0.02
2019-02-06T02:04:02.299Z,-0.10
2019-02-06T02:05:02.212Z,-0.17
2019-02-06T02:06:02.842Z,-0.18
2019-02-06T02:07:02.086Z,-0.21
2019-02-06T02:08:02.029Z,-0.15
2019-02-06T02:09:01.971Z,-0.18
2019-02-06T02:10:01.908Z,-0.25
2019-02-06T02:11:01.887Z,-0.17
2019-02-06T02:12:01.811Z,-0.23
2019-02-06T02:13:01.733Z,-0.25
2019-02-06T02:14:01.672Z,-0.21
2019-02-06T02:15:01.609Z,-0.21
2019-02-06T02:16:01.589Z,-0.29
2019-02-06T02:17:01.492Z,-0.28
2019-02-06T02:18:01.447Z,-0.28
2019-02-06T02:19:01.393Z,-0.23
2019-02-06T02:20:01.307Z,-0.26
2019-02-06T02:21:01.282Z,-0.23
2019-02-06T02:22:01.219Z,-0.29
2019-02-06T02:23:01.126Z,-0.35
2019-02-06T02:24:01.067Z,-0.26
2019-02-06T02:25:01.005Z,-0.25
2019-02-06T02:26:00.946Z,-0.39
2019-02-06T02:27:00.939Z,-0.44
2019-02-06T02:28:00.828Z,-0.43
2019-02-06T02:29:00.798Z,-0.41
2019-02-06T02:30:00.726Z,-0.44
2019-02-06T02:31:00.677Z,-0.46
2019-02-06T02:32:00.587Z,-0.44
2019-02-06T02:33:00.529Z,-0.46
2019-02-06T02:34:00.464Z,-0.41
2019-02-06T02:35:00.435Z,-0.46
2019-02-06T02:36:00.376Z,-0.49
2019-02-06T02:37:00.286Z,-0.52
2019-02-06T02:38:00.236Z,-0.53
2019-02-06T02:39:00.165Z,-0.57
2019-02-06T02:40:00.320Z,-0.54
2019-02-06T02:41:00.047Z,-0.57
2019-02-06T02:42:00.022Z,-0.57
2019-02-06T02:42:59.922Z,-0.50
2019-02-06T02:43:59.861Z,-0.49
2019-02-06T02:44:59.801Z,-0.52
2019-02-06T02:45:59.740Z,-0.46
2019-02-06T02:46:59.742Z,-0.59
2019-02-06T02:47:59.620Z,-0.52
2019-02-06T02:48:59.558Z,-0.50
2019-02-06T02:49:59.499Z,-0.61
2019-02-06T02:50:59.443Z,-0.56
2019-02-06T02:51:59.418Z,-0.59
2019-02-06T02:52:59.320Z,-0.61
2019-02-06T02:53:59.260Z,-0.61
2019-02-06T02:54:59.199Z,-0.61
2019-02-06T02:55:59.136Z,-0.61
2019-02-06T02:56:59.106Z,-0.65
2019-02-06T02:57:59.021Z,-0.62
2019-02-06T02:58:58.961Z,-0.68
2019-02-06T02:59:58.895Z,-0.64
2019-02-06T03:00:58.872Z,-0.56
2019-02-06T03:01:58.773Z,-0.62
2019-02-06T03:02:58.748Z,-0.59
2019-02-06T03:03:58.650Z,-0.62
2019-02-06T03:04:58.635Z,-0.52
2019-02-06T03:05:58.576Z,-0.59
2019-02-06T03:06:58.476Z,-0.52
2019-02-06T03:07:58.412Z,-0.62
2019-02-06T03:08:58.349Z,-0.61
2019-02-06T03:09:58.294Z,-0.56
2019-02-06T03:10:58.267Z,-0.61
2019-02-06T03:11:58.171Z,-0.57
2019-02-06T03:12:58.115Z,-0.59
2019-02-06T03:13:58.053Z,-0.62
2019-02-06T03:14:58.026Z,-0.67
2019-02-06T03:15:57.932Z,-0.61
2019-02-06T03:16:57.869Z,-0.71
2019-02-06T03:17:57.851Z,-0.61
2019-02-06T03:18:57.746Z,-0.62
2019-02-06T03:19:57.686Z,-0.67
2019-02-06T03:20:57.627Z,-0.65
2019-02-06T03:21:57.565Z,-0.67
2019-02-06T03:22:57.544Z,-0.68
2019-02-06T03:23:57.445Z,-0.71
2019-02-06T03:24:57.386Z,-0.72
2019-02-06T03:25:57.323Z,-0.70
2019-02-06T03:26:57.302Z,-0.64
2019-02-06T03:27:57.235Z,-0.70
2019-02-06T03:28:57.142Z,-0.64
2019-02-06T03:29:57.089Z,-0.70
2019-02-06T03:30:57.054Z,-0.68
2019-02-06T03:31:56.967Z,-0.68
2019-02-06T03:32:56.903Z,-0.67
2019-02-06T03:33:56.840Z,-0.71
2019-02-06T03:34:56.797Z,-0.70
2019-02-06T03:35:56.748Z,-0.56
2019-02-06T03:36:56.659Z,-0.57
2019-02-06T03:37:56.599Z,-0.68
2019-02-06T03:38:56.538Z,-0.53
2019-02-06T03:39:56.516Z,-0.61
2019-02-06T03:40:56.414Z,-0.57
2019-02-06T03:41:56.358Z,-0.70
2019-02-06T03:42:56.295Z,-0.72
2019-02-06T03:43:56.234Z,-0.68
2019-02-06T03:44:56.210Z,-0.72
2019-02-06T03:45:56.112Z,-0.70
2019-02-06T03:46:56.054Z,-0.75
2019-02-06T03:47:55.992Z,-0.74
2019-02-06T03:48:55.930Z,-0.71
2019-02-06T03:49:55.908Z,-0.77
2019-02-06T03:50:55.842Z,-0.82
2019-02-06T03:51:55.755Z,-0.75
2019-02-06T03:52:55.689Z,-0.85
2019-02-06T03:53:55.628Z,-0.78
2019-02-06T03:54:55.573Z,-0.82
2019-02-06T03:55:55.538Z,-0.78
2019-02-06T03:56:55.447Z,-0.85
2019-02-06T03:57:55.423Z,-0.85
2019-02-06T03:58:55.327Z,-0.83
2019-02-06T03:59:55.266Z,-0.90
2019-02-06T04:00:55.206Z,-0.83
2019-02-06T04:01:55.193Z,-0.83
2019-02-06T04:02:55.084Z,-0.86
2019-02-06T04:03:55.021Z,-0.90
2019-02-06T04:04:54.964Z,-0.83
2019-02-06T04:05:54.900Z,-0.85
2019-02-06T04:07:00.870Z,-0.94
2019-02-06T04:07:54.782Z,-0.82
2019-02-06T04:08:54.721Z,-0.85
2019-02-06T04:09:54.658Z,-0.83
2019-02-06T04:10:54.631Z,-0.77
2019-02-06T04:11:54.537Z,-0.75
2019-02-06T04:12:54.478Z,-0.85
2019-02-06T04:13:54.417Z,-0.71
2019-02-06T04:14:54.357Z,-0.82
2019-02-06T04:15:54.328Z,-0.78
2019-02-06T04:16:54.234Z,-0.80
2019-02-06T04:17:54.631Z,-0.80
2019-02-06T04:18:54.147Z,-0.93
2019-02-06T04:19:54.053Z,-0.90
2019-02-06T04:20:53.994Z,-0.89
2019-02-06T04:21:53.941Z,-0.97
2019-02-06T04:22:53.873Z,-1.04
2019-02-06T04:23:53.847Z,-0.94
2019-02-06T04:24:53.753Z,-1.01
2019-02-06T04:25:53.690Z,-1.04
2019-02-06T04:26:53.630Z,-0.93
2019-02-06T04:27:53.571Z,-1.02
2019-02-06T04:28:53.538Z,-0.97
2019-02-06T04:29:53.447Z,-1.01
2019-02-06T04:30:53.391Z,-0.99
2019-02-06T04:31:53.328Z,-0.89
2019-02-06T04:32:53.306Z,-0.97
2019-02-06T04:33:53.205Z,-0.91
2019-02-06T04:34:53.144Z,-1.05
2019-02-06T04:35:53.115Z,-0.99
2019-02-06T04:37:05.840Z,-0.96
2019-02-06T04:37:52.962Z,-0.97
2019-02-06T04:38:52.902Z,-0.94
2019-02-06T04:39:52.841Z,-0.93
2019-02-06T04:40:52.811Z,-0.91
2019-02-06T04:41:52.720Z,-1.01
2019-02-06T04:42:52.659Z,-0.91
2019-02-06T04:43:52.597Z,-0.96
2019-02-06T04:44:52.538Z,-1.07
2019-02-06T04:45:52.520Z,-1.04
2019-02-06T04:46:52.417Z,-1.04
2019-02-06T04:47:52.360Z,-1.09
2019-02-06T04:48:52.298Z,-1.04
2019-02-06T04:49:52.235Z,-1.07
2019-02-06T04:50:52.210Z,-1.22
2019-02-06T04:51:52.111Z,-1.12
2019-02-06T04:52:52.052Z,-1.07
2019-02-06T04:53:52.022Z,-1.14
2019-02-06T04:54:51.932Z,-1.14
2019-02-06T04:55:51.902Z,-1.02
2019-02-06T04:56:51.817Z,-1.14
2019-02-06T04:57:51.748Z,-1.05
2019-02-06T04:58:51.695Z,-1.22
2019-02-06T04:59:51.659Z,-1.11
2019-02-06T05:00:51.567Z,-1.22
2019-02-06T05:01:51.506Z,-1.17
2019-02-06T05:02:51.444Z,-1.14
2019-02-06T05:03:51.424Z,-1.07
2019-02-06T05:04:51.327Z,-1.04
2019-02-06T05:05:51.264Z,-1.05
2019-02-06T05:06:51.247Z,-1.08
2019-02-06T05:07:51.142Z,-1.04
2019-02-06T05:08:51.080Z,-0.97
2019-02-06T05:09:51.022Z,-0.96
2019-02-06T05:10:50.962Z,-1.04
2019-02-06T05:11:50.929Z,-0.97
2019-02-06T05:12:50.849Z,-0.96
2019-02-06T05:13:50.908Z,-0.89
2019-02-06T05:14:50.721Z,-0.91
2019-02-06T05:15:50.658Z,-1.01
2019-02-06T05:16:50.729Z,-0.96
2019-02-06T05:17:50.535Z,-1.05
2019-02-06T05:18:50.479Z,-1.01
2019-02-06T05:19:50.413Z,-1.04
2019-02-06T05:20:50.388Z,-1.15
2019-02-06T05:21:50.297Z,-1.20
2019-02-06T05:22:50.280Z,-1.15
2019-02-06T05:23:50.177Z,-1.15
2019-02-06T05:24:50.114Z,-1.05
2019-02-06T05:25:50.048Z,-1.04
2019-02-06T05:26:49.995Z,-1.17
2019-02-06T05:27:49.963Z,-1.17
2019-02-06T05:28:49.899Z,-1.11
2019-02-06T05:29:49.807Z,-1.19
2019-02-06T05:30:49.747Z,-1.14
2019-02-06T05:31:49.685Z,-1.20
2019-02-06T05:32:49.623Z,-1.30
2019-02-06T05:33:49.594Z,-1.15
2019-02-06T05:34:49.502Z,-1.23
2019-02-06T05:35:49.441Z,-1.19
2019-02-06T05:36:50.915Z,-1.19
2019-02-06T05:37:49.322Z,-1.15
2019-02-06T05:38:49.310Z,-1.14
2019-02-06T05:39:49.198Z,-1.12
2019-02-06T05:40:49.143Z,-1.14
2019-02-06T05:41:49.077Z,-1.19
2019-02-06T05:42:50.550Z,-1.12
2019-02-06T05:43:48.995Z,-1.14
2019-02-06T05:44:48.902Z,-1.12
2019-02-06T05:45:48.838Z,-1.17
2019-02-06T05:46:48.773Z,-1.14
2019-02-06T05:47:48.713Z,-1.04
2019-02-06T05:48:49.493Z,-1.04
2019-02-06T05:49:48.595Z,-1.04
2019-02-06T05:50:48.531Z,-1.11
2019-02-06T05:51:48.472Z,-1.02
2019-02-06T05:52:48.407Z,-1.11
2019-02-06T05:53:48.390Z,-1.17
2019-02-06T05:54:48.288Z,-1.22
2019-02-06T05:55:48.226Z,-1.15
2019-02-06T05:56:48.166Z,-1.14
2019-02-06T05:57:48.109Z,-1.15
2019-02-06T05:58:48.077Z,-1.19
2019-02-06T05:59:48.005Z,-1.11
2019-02-06T06:00:47.923Z,-1.17
2019-02-06T06:01:47.864Z,-1.22
2019-02-06T06:02:47.835Z,-1.20
2019-02-06T06:03:47.738Z,-1.22
2019-02-06T06:04:47.681Z,-1.26
2019-02-06T06:05:47.651Z,-1.30
2019-02-06T06:06:47.558Z,-1.19
2019-02-06T06:07:47.497Z,-1.25
2019-02-06T06:08:47.436Z,-1.29
2019-02-06T06:09:47.381Z,-1.30
2019-02-06T06:10:47.350Z,-1.27
2019-02-06T06:11:47.253Z,-1.26
2019-02-06T06:12:47.197Z,-1.17
2019-02-06T06:13:47.165Z,-1.27
2019-02-06T06:14:47.071Z,-1.26
2019-02-06T06:15:47.044Z,-1.23
2019-02-06T06:16:46.989Z,-1.26
2019-02-06T06:17:46.893Z,-1.23
2019-02-06T06:18:46.829Z,-1.29
2019-02-06T06:19:46.765Z,-1.19
2019-02-06T06:20:46.704Z,-1.26
2019-02-06T06:21:46.675Z,-1.25
2019-02-06T06:22:46.583Z,-1.14
2019-02-06T06:23:46.524Z,-1.17
2019-02-06T06:24:46.495Z,-1.12
2019-02-06T06:25:46.405Z,-1.14
2019-02-06T06:26:46.338Z,-1.19
2019-02-06T06:27:46.277Z,-1.22
2019-02-06T06:28:46.249Z,-1.15
2019-02-06T06:29:46.158Z,-1.22
2019-02-06T06:30:47.419Z,-1.05
2019-02-06T06:31:46.062Z,-1.11
2019-02-06T06:32:45.976Z,-1.12
2019-02-06T06:33:45.916Z,-1.14
2019-02-06T06:34:45.855Z,-1.22
2019-02-06T06:35:45.825Z,-1.15
2019-02-06T06:36:45.738Z,-1.12
2019-02-06T06:37:57.138Z,-1.22
2019-02-06T06:38:45.647Z,-1.19
2019-02-06T06:39:45.550Z,-1.14
2019-02-06T06:40:45.488Z,-1.12
2019-02-06T06:41:45.479Z,-1.22
2019-02-06T06:42:45.367Z,-1.20
2019-02-06T06:43:45.308Z,-1.19
2019-02-06T06:44:45.248Z,-1.23
2019-02-06T06:45:45.188Z,-1.12
2019-02-06T06:46:45.156Z,-1.14
2019-02-06T06:47:45.062Z,-1.09
2019-02-06T06:48:45.004Z,-1.14
2019-02-06T06:49:44.941Z,-1.12
2019-02-06T06:50:44.913Z,-1.04
2019-02-06T06:51:44.820Z,-1.04
2019-02-06T06:52:44.791Z,-1.04
2019-02-06T06:53:44.771Z,-1.01
2019-02-06T06:54:44.637Z,-0.94
2019-02-06T06:55:44.574Z,-0.94
2019-02-06T06:56:44.521Z,-1.01
2019-02-06T06:57:44.487Z,-0.99
2019-02-06T06:58:44.397Z,-0.91
2019-02-06T06:59:44.367Z,-0.94
2019-02-06T07:00:44.305Z,-0.99
2019-02-06T07:01:44.212Z,-0.99
2019-02-06T07:02:44.155Z,-0.97
2019-02-06T07:03:44.092Z,-1.01
2019-02-06T07:04:44.031Z,-0.99
2019-02-06T07:05:44.010Z,-0.90
2019-02-06T07:06:46.341Z,-1.02
2019-02-06T07:07:43.848Z,-0.91
2019-02-06T07:08:43.785Z,-0.99
2019-02-06T07:09:43.725Z,-0.93
2019-02-06T07:10:43.706Z,-0.96
2019-02-06T07:11:43.608Z,-0.96
2019-02-06T07:12:43.541Z,-0.91
2019-02-06T07:13:43.482Z,-0.91
2019-02-06T07:14:43.425Z,-0.96
2019-02-06T07:15:43.394Z,-0.96
2019-02-06T07:16:43.299Z,-0.94
2019-02-06T07:17:43.272Z,-0.91
2019-02-06T07:18:43.179Z,-0.94
2019-02-06T07:19:43.158Z,-0.97
2019-02-06T07:20:43.057Z,-0.97
2019-02-06T07:21:42.999Z,-0.97
2019-02-06T07:22:42.937Z,-0.96
2019-02-06T07:23:42.875Z,-0.99
2019-02-06T07:24:42.862Z,-1.02
2019-02-06T07:25:42.756Z,-0.96
2019-02-06T07:26:42.691Z,-1.02
2019-02-06T07:27:42.631Z,-0.90
2019-02-06T07:28:42.574Z,-1.02
2019-02-06T07:29:42.552Z,-0.96
2019-02-06T07:30:42.453Z,-0.91
2019-02-06T07:31:42.421Z,-0.91
2019-02-06T07:32:42.329Z,-0.93
2019-02-06T07:33:42.269Z,-0.93
2019-02-06T07:34:42.211Z,-0.91
2019-02-06T07:35:42.145Z,-0.85
2019-02-06T07:36:42.121Z,-0.91
2019-02-06T07:37:42.028Z,-0.97
2019-02-06T07:38:41.965Z,-0.89
2019-02-06T07:39:41.951Z,-0.90
2019-02-06T07:40:41.843Z,-0.94
2019-02-06T07:41:41.784Z,-0.80
2019-02-06T07:42:41.722Z,-0.91
2019-02-06T07:43:41.662Z,-0.85
2019-02-06T07:44:41.635Z,-0.83
2019-02-06T07:45:41.541Z,-0.74
2019-02-06T07:46:41.487Z,-0.83
2019-02-06T07:47:41.449Z,-0.83
2019-02-06T07:48:41.358Z,-0.77
2019-02-06T07:49:41.305Z,-0.71
2019-02-06T07:50:41.236Z,-0.72
2019-02-06T07:51:41.211Z,-0.67
2019-02-06T07:52:41.115Z,-0.68
2019-02-06T07:53:41.056Z,-0.53
2019-02-06T07:54:41.002Z,-0.56
2019-02-06T07:55:40.933Z,-0.56
2019-02-06T07:56:40.904Z,-0.56
2019-02-06T07:57:40.814Z,-0.49
2019-02-06T07:58:40.753Z,-0.46
2019-02-06T07:59:40.700Z,-0.50
2019-02-06T08:00:40.665Z,-0.46
2019-02-06T08:01:40.575Z,-0.52
2019-02-06T08:02:40.552Z,-0.43
2019-02-06T08:03:40.483Z,-0.50
2019-02-06T08:04:41.623Z,-0.41
2019-02-06T08:05:40.331Z,-0.39
2019-02-06T08:06:40.271Z,-0.50
2019-02-06T08:07:40.212Z,-0.38
2019-02-06T08:08:40.176Z,-0.43
2019-02-06T08:09:40.091Z,-0.41
2019-02-06T08:10:40.050Z,-0.39
2019-02-06T08:11:39.987Z,-0.31
2019-02-06T08:12:39.948Z,-0.29
2019-02-06T08:13:39.880Z,-0.25
2019-02-06T08:14:39.790Z,-0.13
2019-02-06T08:15:39.728Z,-0.13
2019-02-06T08:16:39.686Z,-0.13
2019-02-06T08:17:39.609Z,-0.14
2019-02-06T08:18:39.583Z,-0.10
2019-02-06T08:19:39.490Z,0.05
2019-02-06T08:20:39.431Z,-0.08
2019-02-06T08:21:39.368Z,-0.03
2019-02-06T08:22:39.313Z,-0.03
2019-02-06T08:23:39.277Z,0.00
2019-02-06T08:24:39.219Z,0.05
2019-02-06T08:25:39.136Z,0.08
2019-02-06T08:26:39.070Z,-0.02
2019-02-06T08:27:39.016Z,0.03
2019-02-06T08:28:38.949Z,0.19
2019-02-06T08:29:38.937Z,0.16
2019-02-06T08:30:38.830Z,0.21
2019-02-06T08:31:38.774Z,0.37
2019-02-06T08:32:38.710Z,0.37
2019-02-06T08:33:38.654Z,0.41
2019-02-06T08:34:38.623Z,0.44
2019-02-06T08:35:38.533Z,0.56
2019-02-06T08:36:38.474Z,0.49
2019-02-06T08:37:38.419Z,0.69
2019-02-06T08:38:47.456Z,0.84
2019-02-06T08:39:38.326Z,0.80
2019-02-06T08:40:38.232Z,0.91
2019-02-06T08:41:38.181Z,1.02
2019-02-06T08:42:38.116Z,1.14
2019-02-06T08:43:38.107Z,1.01
2019-02-06T08:44:37.994Z,1.12
2019-02-06T08:45:37.939Z,1.16
2019-02-06T08:46:37.883Z,1.28
2019-02-06T08:47:37.822Z,1.34
2019-02-06T08:48:37.794Z,1.38
2019-02-06T08:49:37.702Z,1.49
2019-02-06T08:50:37.677Z,1.52
2019-02-06T08:51:37.590Z,1.55
2019-02-06T08:52:37.527Z,1.59
2019-02-06T08:53:37.468Z,1.60
2019-02-06T08:54:37.412Z,1.53
2019-02-06T08:55:37.383Z,1.67
2019-02-06T08:56:37.296Z,1.56
2019-02-06T08:57:37.235Z,1.76
2019-02-06T08:58:37.179Z,1.73
2019-02-06T08:59:37.175Z,1.80
2019-02-06T09:00:37.064Z,1.74
2019-02-06T09:01:37.004Z,1.92
2019-02-06T09:02:36.945Z,1.99
2019-02-06T09:03:36.891Z,2.11
2019-02-06T09:04:36.871Z,2.10
2019-02-06T09:05:36.775Z,2.31
2019-02-06T09:06:36.714Z,2.42
2019-02-06T09:07:36.661Z,2.61
2019-02-06T09:08:36.603Z,2.82
2019-02-06T09:09:36.583Z,2.87
2019-02-06T09:10:36.488Z,2.93
2019-02-06T09:11:36.432Z,2.79
2019-02-06T09:12:36.376Z,2.61
2019-02-06T09:13:36.317Z,2.54
2019-02-06T09:14:36.305Z,2.54
2019-02-06T09:15:36.206Z,2.61
2019-02-06T09:16:36.147Z,2.67
2019-02-06T09:17:36.094Z,2.77
2019-02-06T09:18:36.041Z,2.87
2019-02-06T09:19:36.012Z,2.86
2019-02-06T09:20:35.924Z,2.95
2019-02-06T09:21:35.869Z,3.04
2019-02-06T09:22:35.810Z,3.04
2019-02-06T09:23:35.788Z,3.32
2019-02-06T09:24:35.704Z,3.29
2019-02-06T09:25:35.674Z,3.37
2019-02-06T09:26:36.313Z,3.48
2019-02-06T09:27:35.532Z,3.55
2019-02-06T09:28:37.302Z,3.59
2019-02-06T09:29:35.422Z,3.56
2019-02-06T09:30:35.400Z,3.50
2019-02-06T09:31:35.319Z,3.60
2019-02-06T09:32:35.261Z,3.63
2019-02-06T09:33:35.203Z,3.47
2019-02-06T09:34:35.152Z,3.55
2019-02-06T09:35:35.126Z,3.51
2019-02-06T09:36:35.039Z,3.47
2019-02-06T09:37:34.981Z,3.55
2019-02-06T09:38:34.932Z,3.60
2019-02-06T09:39:34.905Z,3.56
2019-02-06T09:40:34.817Z,3.53
2019-02-06T09:41:34.761Z,3.62
2019-02-06T09:42:34.709Z,3.41
2019-02-06T09:43:34.657Z,3.56
2019-02-06T09:44:34.639Z,3.53
2019-02-06T09:45:34.546Z,3.66
2019-02-06T09:46:34.493Z,4.01
2019-02-06T09:47:34.433Z,4.19
2019-02-06T09:48:34.388Z,4.35
2019-02-06T09:49:34.370Z,4.48
2019-02-06T09:50:34.275Z,4.38
2019-02-06T09:51:34.222Z,4.52
2019-02-06T09:52:34.170Z,4.58
2019-02-06T09:53:34.114Z,4.55
2019-02-06T09:54:34.114Z,4.74
2019-02-06T09:55:34.010Z,5.00
2019-02-06T09:56:33.954Z,5.08
2019-02-06T09:57:35.569Z,5.26
2019-02-06T09:58:33.858Z,5.29
2019-02-06T09:59:33.824Z,5.25
2019-02-06T10:00:33.758Z,5.20
2019-02-06T10:01:33.690Z,5.17
2019-02-06T10:02:33.639Z,5.12
2019-02-06T10:03:33.593Z,5.26
2019-02-06T10:04:33.568Z,5.57
2019-02-06T10:05:33.481Z,5.56
2019-02-06T10:06:33.431Z,5.62
2019-02-06T10:07:33.414Z,5.75
2019-02-06T10:08:33.325Z,6.01
2019-02-06T10:09:33.274Z,5.98
2019-02-06T10:10:33.229Z,6.30
2019-02-06T10:11:33.208Z,6.64
2019-02-06T10:12:33.149Z,6.49
2019-02-06T10:13:33.073Z,6.31
2019-02-06T10:14:33.018Z,6.36
2019-02-06T10:15:32.997Z,6.35
2019-02-06T10:16:32.913Z,6.05
2019-02-06T10:17:32.864Z,5.83
2019-02-06T10:18:32.847Z,6.04
2019-02-06T10:19:32.763Z,5.91
2019-02-06T10:20:32.713Z,5.91
2019-02-06T10:21:32.659Z,6.05
2019-02-06T10:22:32.616Z,5.83
2019-02-06T10:23:32.593Z,5.91
2019-02-06T10:24:32.504Z,5.84
2019-02-06T10:25:32.457Z,6.07
2019-02-06T10:26:32.404Z,5.84
2019-02-06T10:27:32.357Z,5.65
2019-02-06T10:28:32.339Z,5.65
2019-02-06T10:29:32.250Z,5.53
2019-02-06T10:30:32.199Z,5.28
2019-02-06T10:31:32.924Z,5.23
2019-02-06T10:32:32.096Z,5.17
2019-02-06T10:33:32.077Z,5.12
2019-02-06T10:34:31.995Z,5.50
2019-02-06T10:35:31.944Z,5.69
2019-02-06T10:36:31.901Z,5.61
2019-02-06T10:37:31.871Z,5.83
2019-02-06T10:38:31.785Z,5.72
2019-02-06T10:39:34.619Z,5.80
2019-02-06T10:40:31.686Z,5.69
2019-02-06T10:41:31.629Z,5.56
2019-02-06T10:42:31.581Z,5.80
2019-02-06T10:43:35.289Z,5.62
2019-02-06T10:44:31.514Z,5.68
2019-02-06T10:45:31.420Z,6.14
2019-02-06T10:46:31.368Z,6.12
2019-02-06T10:47:31.323Z,6.30
2019-02-06T10:48:31.297Z,6.16
2019-02-06T10:49:31.214Z,6.07
2019-02-06T10:50:31.160Z,6.08
2019-02-06T10:51:31.110Z,6.01
2019-02-06T10:52:31.065Z,6.26
2019-02-06T10:53:31.035Z,6.27
2019-02-06T10:54:30.957Z,6.26
2019-02-06T10:55:30.903Z,6.14
2019-02-06T10:56:30.852Z,6.42
2019-02-06T10:57:30.828Z,6.60
2019-02-06T10:58:30.749Z,7.06
2019-02-06T10:59:30.693Z,6.87
2019-02-06T11:00:30.641Z,6.72
2019-02-06T11:01:30.592Z,6.88
2019-02-06T11:02:30.580Z,6.67
2019-02-06T11:03:30.489Z,6.62
2019-02-06T11:04:30.439Z,6.51
2019-02-06T11:05:30.390Z,6.35
2019-02-06T11:06:30.337Z,6.27
2019-02-06T11:07:30.311Z,6.14
2019-02-06T11:08:30.230Z,5.66
2019-02-06T11:09:30.185Z,5.66
2019-02-06T11:10:30.123Z,5.69
2019-02-06T11:11:30.104Z,5.87
2019-02-06T11:12:30.016Z,6.07
2019-02-06T11:13:29.964Z,6.05
2019-02-06T11:14:29.943Z,6.09
2019-02-06T11:15:29.864Z,5.87
2019-02-06T11:16:29.806Z,5.94
2019-02-06T11:17:29.758Z,6.16
2019-02-06T11:18:29.736Z,6.09
2019-02-06T11:19:29.650Z,5.99
2019-02-06T11:20:29.598Z,5.93
2019-02-06T11:21:29.546Z,6.07
2019-02-06T11:22:29.525Z,6.35
2019-02-06T11:23:29.435Z,6.01
2019-02-06T11:24:29.388Z,5.98
2019-02-06T11:25:29.335Z,5.83
2019-02-06T11:26:29.314Z,5.76
2019-02-06T11:27:29.229Z,5.80
2019-02-06T11:28:29.176Z,5.72
2019-02-06T11:29:29.150Z,5.73
2019-02-06T11:30:29.112Z,5.51
2019-02-06T11:31:29.014Z,5.35
2019-02-06T11:32:28.962Z,4.97
2019-02-06T11:33:28.909Z,4.84
2019-02-06T11:34:28.854Z,4.73
2019-02-06T11:35:28.948Z,4.75
2019-02-06T11:36:28.745Z,4.97
2019-02-06T11:37:28.693Z,5.11
2019-02-06T11:38:28.644Z,5.00
2019-02-06T11:39:28.592Z,4.75
2019-02-06T11:40:28.565Z,4.80
2019-02-06T11:41:28.482Z,4.67
2019-02-06T11:42:28.428Z,4.77
2019-02-06T11:43:28.403Z,4.74
2019-02-06T11:44:28.321Z,4.80
2019-02-06T11:45:28.274Z,4.59
2019-02-06T11:46:28.218Z,4.42
2019-02-06T11:47:28.158Z,4.24
2019-02-06T11:48:28.140Z,4.14
2019-02-06T11:49:28.052Z,4.10
2019-02-06T11:50:27.998Z,4.22
2019-02-06T11:51:27.975Z,4.31
2019-02-06T11:52:27.889Z,4.17
2019-02-06T11:53:27.835Z,4.48
2019-02-06T11:54:27.782Z,4.40
2019-02-06T11:55:27.756Z,4.38
2019-02-06T11:56:27.680Z,4.42
2019-02-06T11:57:27.621Z,4.19
2019-02-06T11:58:27.603Z,4.28
2019-02-06T11:59:27.511Z,4.26
2019-02-06T12:00:27.460Z,4.26
2019-02-06T12:01:27.402Z,4.26
2019-02-06T12:02:37.028Z,4.26
2019-02-06T12:03:27.326Z,4.53
2019-02-06T12:04:27.237Z,4.50
2019-02-06T12:05:27.186Z,4.58
2019-02-06T12:06:27.130Z,4.84
2019-02-06T12:07:27.073Z,4.73
2019-02-06T12:08:27.050Z,4.68
2019-02-06T12:09:26.990Z,4.75
2019-02-06T12:10:26.912Z,4.59
2019-02-06T12:11:26.858Z,4.59
2019-02-06T12:12:26.801Z,4.73
2019-02-06T12:13:26.753Z,4.53
2019-02-06T12:14:26.737Z,4.63
2019-02-06T12:15:26.638Z,4.66
2019-02-06T12:16:26.600Z,4.62
2019-02-06T12:17:26.530Z,4.67
2019-02-06T12:18:26.479Z,5.00
2019-02-06T12:19:26.489Z,5.07
2019-02-06T12:20:26.368Z,4.90
2019-02-06T12:21:26.311Z,4.63
2019-02-06T12:22:26.260Z,4.50
2019-02-06T12:23:32.423Z,4.56
2019-02-06T12:24:26.273Z,4.67
2019-02-06T12:25:26.094Z,4.70
2019-02-06T12:26:26.038Z,4.58
2019-02-06T12:27:25.992Z,4.48
2019-02-06T12:28:25.931Z,4.55
2019-02-06T12:29:25.911Z,4.38
2019-02-06T12:30:25.854Z,4.45
2019-02-06T12:31:25.773Z,4.37
2019-02-06T12:32:25.758Z,4.35
2019-02-06T12:33:25.659Z,4.16
2019-02-06T12:34:25.604Z,4.22
2019-02-06T12:35:25.582Z,4.24
2019-02-06T12:36:25.528Z,4.10
2019-02-06T12:37:25.445Z,4.20
2019-02-06T12:38:25.423Z,4.30
2019-02-06T12:39:25.334Z,4.35
2019-02-06T12:40:25.277Z,4.48
2019-02-06T12:41:25.314Z,4.66
2019-02-06T12:42:25.170Z,4.58
2019-02-06T12:43:25.163Z,4.48
2019-02-06T12:44:25.071Z,4.52
2019-02-06T12:45:25.002Z,4.53
2019-02-06T12:46:24.951Z,4.73
2019-02-06T12:47:26.875Z,4.73
2019-02-06T12:48:24.879Z,4.71
2019-02-06T12:49:24.803Z,4.42
2019-02-06T12:50:24.732Z,4.28
2019-02-06T12:51:24.673Z,4.31
2019-02-06T12:52:24.621Z,4.37
2019-02-06T12:53:24.602Z,4.24
2019-02-06T12:54:24.510Z,4.32
2019-02-06T12:55:24.461Z,4.34
2019-02-06T12:56:24.403Z,4.26
2019-02-06T12:57:36.042Z,4.30
2019-02-06T12:58:26.217Z,4.10
2019-02-06T12:59:24.238Z,4.14
2019-02-06T13:00:24.212Z,4.35
2019-02-06T13:01:24.124Z,4.28
2019-02-06T13:02:24.071Z,4.30
2019-02-06T13:03:24.017Z,4.30
2019-02-06T13:04:23.994Z,4.31